• Join FlightAware (Why Join?)
  • Login
  • US Flag 
 
10:58PM EST


 

Airport Tracker/Info


-or-


 

Live Flight TrackerFlight Track Log ✈ SWA662 ✈ 09-Jun-2013 ✈ KLAX - KDEN

Flight Track Log - Related Links

Times and Time Zones

All times are in EDT time to prevent confusion due to time zone crossing. See the SWA662 flight status page for this flight to view local times or setup timezone preferences in your user account.

Time Position Orientation Groundspeed Altitude Reporting Facility
EDT Latitude Longitude Course Direction KTS MPH feet Rate Location/Type
11:19PM 33.9500 -118.4333 260° West 161 185 1,000  Level Southern California TRACON
11:19PM 33.9467 -118.4572 260° West 173 199 1,700 1,800 Climbing Los Angeles Center
11:20PM 33.9397 -118.5475 265° West 230 265 3,800 1,980 Climbing Los Angeles Center
11:21PM 33.9269 -118.6381 260° West 274 315 6,300 2,640 Climbing Los Angeles Center
11:22PM 33.8836 -118.7203 238° Southwest 289 333 9,300 2,760 Climbing Los Angeles Center
11:23PM 33.8442 -118.6603 128° Southeast 280 322 12,000 1,800 Climbing Los Angeles Center
11:24PM 33.8806 -118.5644 65° Northeast 316 364 13,100 1,500 Climbing Los Angeles Center
11:25PM 33.9228 -118.4592 64° Northeast 323 372 15,200 1,920 Climbing Los Angeles Center
11:26PM 33.9692 -118.3714 57° Northeast 342 394 17,100 1,920 Climbing Los Angeles Center
11:27PM 34.0253 -118.2703 56° Northeast 359 413 19,200 1,440 Climbing Los Angeles Center
11:28PM 34.0897 -118.1564 56° Northeast 409 471 20,100 1,560 Climbing Los Angeles Center
11:29PM 34.1719 -118.0103 56° Northeast 436 502 22,500 1,380 Climbing Los Angeles Center
11:30PM 34.2411 -117.8869 56° Northeast 441 507 23,000 960 Climbing Los Angeles Center
11:32PM 34.3114 -117.7611 56° Northeast 448 516 24,500 1,560 Climbing Los Angeles Center
11:33PM 34.3878 -117.6250 56° Northeast 461 531 26,300 1,740 Climbing Los Angeles Center
11:34PM 34.4603 -117.4933 56° Northeast 472 543 28,100 1,620 Climbing Los Angeles Center
11:35PM 34.5464 -117.3706 50° Northeast 479 551 29,700 1,500 Climbing Los Angeles Center
11:36PM 34.6347 -117.2472 49° Northeast 487 560 31,200 1,380 Climbing Los Angeles Center
11:37PM 34.7225 -117.1231 49° Northeast 489 563 32,600 1,260 Climbing Los Angeles Center
11:38PM 34.8106 -116.9989 49° Northeast 488 562 33,800 1,140 Climbing Los Angeles Center
11:39PM 34.9172 -116.8467 49° Northeast 494 568 35,000 960 Climbing Los Angeles Center
11:40PM 35.0061 -116.7214 49° Northeast 494 568 35,800 960 Climbing Los Angeles Center
11:41PM 35.0911 -116.5992 50° Northeast 483 556 37,000 540 Climbing Los Angeles Center
11:42PM 35.1767 -116.4750 50° Northeast 479 551 37,000  Level Los Angeles Center
11:43PM 35.2644 -116.3528 49° Northeast 480 552 37,000  Level Los Angeles Center
11:44PM 35.3503 -116.2300 49° Northeast 477 549 37,000  Level Los Angeles Center
11:45PM 35.4508 -116.0814 50° Northeast 475 547 37,000  Level Los Angeles Center
11:46PM 35.5369 -115.9592 49° Northeast 474 545 37,000  Level Los Angeles Center
11:47PM 35.5964 -115.8194 62° Northeast 447 514 37,000  Level Los Angeles Center
11:48PM 35.6531 -115.6764 64° Northeast 462 532 37,000  Level Los Angeles Center
11:49PM 35.7089 -115.5336 64° Northeast 466 536 37,000  Level Los Angeles Center
11:50PM 35.7653 -115.3889 64° Northeast 470 541 37,000  Level Los Angeles Center
11:51PM 35.8319 -115.2167 64° Northeast 469 540 37,000  Level Los Angeles Center
11:52PM 35.8869 -115.0733 65° Northeast 468 539 37,000  Level Los Angeles Center
11:53PM 35.9419 -114.9289 65° Northeast 468 539 37,000  Level Los Angeles Center
11:54PM 35.9981 -114.7819 65° Northeast 474 545 37,000  Level Los Angeles Center
11:55PM 36.0547 -114.6353 64° Northeast 475 547 37,000  Level Los Angeles Center
11:56PM 36.1111 -114.4864 65° Northeast 479 551 37,000  Level Los Angeles Center
11:57PM 36.1797 -114.3083 64° Northeast 479 551 37,000  Level Los Angeles Center
11:58PM 36.2356 -114.1583 65° Northeast 480 552 37,000  Level Los Angeles Center
11:59PM 36.2917 -114.0072 65° Northeast 485 558 37,000  Level Los Angeles Center
12:00AM 36.3478 -113.8556 65° Northeast 484 557 37,000  Level Los Angeles Center
12:01AM 36.4042 -113.7050 65° Northeast 484 557 37,000  Level Los Angeles Center
12:02AM 36.4600 -113.5536 65° Northeast 483 556 37,000  Level Los Angeles Center
12:03AM 36.5225 -113.3836 65° Northeast 477 549 37,000  Level Los Angeles Center
12:04AM 36.5772 -113.2347 65° Northeast 476 548 37,000  Level Los Angeles Center
12:05AM 36.6311 -113.0856 66° East 475 547 37,000  Level Los Angeles Center
12:07AM 36.6853 -112.9364 66° East 475 547 37,000  Level Los Angeles Center
12:08AM 36.7403 -112.7881 65° Northeast 474 545 37,000  Level Los Angeles Center
12:09AM 36.8042 -112.6083 66° East 476 548 37,000  Level Los Angeles Center
12:10AM 36.8567 -112.4578 66° East 476 548 37,000  Level Los Angeles Center
12:11AM 36.9108 -112.3086 66° East 477 549 37,000  Level Los Angeles Center
12:12AM 36.9639 -112.1586 66° East 475 547 37,000  Level Los Angeles Center
12:13AM 37.0169 -112.0078 66° East 476 548 37,000  Level Los Angeles Center
12:14AM 37.0700 -111.8564 66° East 477 549 37,000  Level Los Angeles Center
12:15AM 37.1236 -111.7050 66° East 477 549 37,000  Level Los Angeles Center
12:16AM 37.1778 -111.5508 66° East 480 552 37,000  Level Denver Center
12:17AM 37.2286 -111.3994 67° East 480 552 37,000  Level Denver Center
12:18AM 37.2811 -111.2456 67° East 482 555 37,000  Level Denver Center
12:19AM 37.3336 -111.0911 67° East 484 557 37,000  Level Denver Center
12:20AM 37.3844 -110.9353 68° East 484 557 37,000  Level Denver Center
12:21AM 37.4372 -110.7817 67° East 481 554 37,000  Level Denver Center
12:22AM 37.4892 -110.6261 67° East 484 557 37,000  Level Denver Center
12:23AM 37.5425 -110.4656 67° East 482 555 37,000  Level Denver Center
12:24AM 37.6008 -110.2911 67° East 483 556 37,000  Level Denver Center
12:25AM 37.6492 -110.1433 68° East 479 551 37,000  Level Denver Center
12:26AM 37.6983 -109.9939 67° East 480 552 37,000  Level Denver Center
12:27AM 37.7547 -109.8203 68° East 478 550 37,000  Level Denver Center
12:28AM 37.8031 -109.6706 68° East 478 550 37,000  Level Denver Center
12:29AM 37.8519 -109.5211 67° East 482 555 37,000  Level Denver Center
12:30AM 37.9072 -109.3472 68° East 478 550 37,000  Level Denver Center
12:31AM 37.9561 -109.1958 68° East 482 555 37,000  Level Denver Center
12:32AM 38.0028 -109.0450 69° East 481 554 37,000  Level Denver Center
12:33AM 38.0594 -108.8686 68° East 480 552 37,000  Level Denver Center
12:34AM 38.1072 -108.7131 69° East 490 564 37,000  Level Denver Center
12:35AM 38.1622 -108.5394 68° East 479 551 37,000  Level Denver Center
12:36AM 38.2094 -108.3894 68° East 479 551 37,000  Level Denver Center
12:37AM 38.2561 -108.2375 69° East 480 552 37,000  Level Denver Center
12:38AM 38.3100 -108.0600 69° East 482 555 37,000  Level Denver Center
12:39AM 38.3564 -107.9089 69° East 481 554 37,000  Level Denver Center
12:40AM 38.4017 -107.7572 69° East 480 552 37,000  Level Denver Center
12:41AM 38.4572 -107.5789 68° East 484 557 37,000  Level Denver Center
12:42AM 38.5208 -107.4389 60° Northeast 481 554 37,000  Level Denver Center
12:43AM 38.5839 -107.2975 60° Northeast 479 551 37,000  Level Denver Center
12:44AM 38.6544 -107.1417 60° Northeast 481 554 37,000  Level Denver Center
12:45AM 38.7197 -106.9933 61° Northeast 482 555 37,000  Level Denver Center
12:46AM 38.7850 -106.8458 60° Northeast 477 549 37,000  Level Denver Center
12:47AM 38.8497 -106.6964 61° Northeast 480 552 37,000 -120 Level Denver Center
12:48AM 38.9214 -106.5411 59° Northeast 477 549 36,800 -1,440 Descending Denver Center
12:49AM 38.9961 -106.3811 59° Northeast 470 541 34,100 -2,580 Descending Denver Center
12:50AM 39.0597 -106.2417 60° Northeast 472 543 31,600 -2,220 Descending Denver Center
12:51AM 39.1192 -106.1058 61° Northeast 468 539 29,600 -2,040 Descending Denver Center
12:52AM 39.1808 -105.9692 60° Northeast 448 516 27,500 -2,040 Descending Denver Center
12:53AM 39.2389 -105.8358 61° Northeast 431 496 25,500 -1,980 Descending Denver Center
12:54AM 39.2961 -105.7072 60° Northeast 417 480 23,500 -1,920 Descending Denver Center
12:55AM 39.3594 -105.5606 61° Northeast 393 452 21,700 -1,380 Descending Denver Center
12:56AM 39.4125 -105.4467 59° Northeast 378 435 20,700 -1,260 Descending Denver Center
12:57AM 39.4667 -105.3450 55° Northeast 343 395 19,200 -1,500 Descending Denver Center
12:58AM 39.5197 -105.2461 55° Northeast 336 387 17,700 -1,140 Descending Denver Center
12:59AM 39.5703 -105.1456 57° Northeast 333 383 17,000 -660 Descending Denver Center
01:00AM 39.6222 -105.0497 55° Northeast 327 376 16,400 -1,140 Descending Denver Center
01:01AM 39.6747 -104.9475 56° Northeast 315 362 14,800 -1,560 Descending Denver Center
01:02AM 39.7267 -104.8550 54° Northeast 308 354 13,300 -1,320 Descending Denver Center
01:03AM 39.8064 -104.8406 North 283 326 12,200 -1,020 Descending Denver Center
01:04AM 39.8808 -104.8394 North 264 304 11,300 -780 Descending Denver Center
01:05AM 39.9503 -104.8347 North 248 285 10,700 -1,080 Descending Denver Center
01:06AM 40.0181 -104.8119 14° North 249 287 9,200 -1,440 Descending Denver Center
01:07AM 40.0508 -104.7433 58° Northeast 257 296 7,800 -1,080 Descending Denver Center
01:08AM 39.9981 -104.6992 147° Southeast 220 253 7,100 -720 Descending Denver Center
01:09AM 39.9522 -104.6861 168° South 170 196 6,400 -720 Descending Denver Center
01:10AM 39.9114 -104.6867 181° South 148 170 5,700 -540 Descending Denver Center
01:11AM 39.8758 -104.6872 181° South 139 160 5,400 -300 Descending Denver Center
01:13AM 39.8617 -104.6732 180° South  Level Estimated
01:20AM 39.8617 -104.6732 180° South  Level Estimated
01:21AM 39.8617 -104.6732 180° South  Level Estimated